createdAt,value
2023-01-02T00:00:23.407Z,101457.47
2023-01-02T00:03:26.084Z,101460.69
2023-01-02T00:06:28.590Z,101441.56
2023-01-02T00:09:31.055Z,101443.22
2023-01-02T00:12:33.534Z,101452.44
2023-01-02T00:15:36.208Z,101444.63
2023-01-02T00:18:40.485Z,101450.44
2023-01-02T00:21:44.787Z,101444.03
2023-01-02T00:24:47.297Z,101432.88
2023-01-02T00:27:49.858Z,101439.69
2023-01-02T00:30:52.792Z,101427.16
2023-01-02T00:33:55.308Z,101438.16
2023-01-02T00:36:57.829Z,101434.94
2023-01-02T00:40:00.401Z,101444.00
2023-01-02T00:43:02.925Z,101447.94
2023-01-02T00:46:11.224Z,101447.59
2023-01-02T00:49:14.299Z,101450.31
2023-01-02T00:52:16.797Z,101458.78
2023-01-02T00:55:19.258Z,101454.66
2023-01-02T00:58:21.769Z,101446.53
2023-01-02T01:01:24.351Z,101461.00
2023-01-02T01:04:27.149Z,101460.91
2023-01-02T01:07:29.937Z,101456.97
2023-01-02T01:10:35.419Z,101454.38
2023-01-02T01:13:38.366Z,101452.31
2023-01-02T01:16:41.913Z,101449.63
2023-01-02T01:19:44.603Z,101436.88
2023-01-02T01:22:47.768Z,101434.06
2023-01-02T01:25:50.202Z,101438.59
2023-01-02T01:28:54.378Z,101429.50
2023-01-02T01:31:56.914Z,101433.88
2023-01-02T01:34:59.485Z,101436.22
2023-01-02T01:38:02.031Z,101433.25
2023-01-02T01:41:06.074Z,101422.63
2023-01-02T01:44:44.057Z,101415.97
2023-01-02T01:47:55.222Z,101400.81
2023-01-02T01:50:58.179Z,101401.28
2023-01-02T01:54:07.565Z,101388.72
2023-01-02T01:57:19.312Z,101389.38
2023-01-02T02:00:21.878Z,101386.66
2023-01-02T02:03:27.818Z,101378.69
2023-01-02T02:06:30.370Z,101374.69
2023-01-02T02:09:39.161Z,101368.84
2023-01-02T02:12:41.713Z,101371.03
2023-01-02T02:15:58.966Z,101371.56
2023-01-02T02:19:17.892Z,101364.38
2023-01-02T02:22:44.723Z,101370.56
2023-01-02T02:26:25.944Z,101375.22
2023-01-02T02:30:00.757Z,101377.03
2023-01-02T02:33:03.205Z,101376.19
2023-01-02T02:36:20.000Z,101365.72
2023-01-02T02:39:26.960Z,101362.41
2023-01-02T02:42:57.291Z,101361.81
2023-01-02T02:46:36.632Z,101363.47
2023-01-02T02:49:54.044Z,101364.31
2023-01-02T02:53:04.502Z,101370.94
2023-01-02T02:56:09.846Z,101370.28
2023-01-02T02:59:12.723Z,101369.78
2023-01-02T03:02:16.955Z,101367.13
2023-01-02T03:05:35.177Z,101367.47
2023-01-02T03:08:43.910Z,101376.25
2023-01-02T03:12:08.606Z,101365.44
2023-01-02T03:15:29.752Z,101369.78
2023-01-02T03:18:45.854Z,101356.66
2023-01-02T03:21:55.408Z,101351.34
2023-01-02T03:24:59.254Z,101349.97
2023-01-02T03:28:06.328Z,101351.84
2023-01-02T03:31:11.652Z,101353.69
2023-01-02T03:34:18.959Z,101343.69
2023-01-02T03:37:29.196Z,101346.88
2023-01-02T03:40:39.032Z,101354.19
2023-01-02T03:43:44.201Z,101346.34
2023-01-02T03:46:59.049Z,101352.53
2023-01-02T03:50:09.909Z,101352.19
2023-01-02T03:53:13.798Z,101344.38
2023-01-02T03:56:22.129Z,101349.13
2023-01-02T03:59:35.427Z,101353.31
2023-01-02T04:02:37.956Z,101343.81
2023-01-02T04:05:55.799Z,101350.13
2023-01-02T04:09:22.428Z,101351.28
2023-01-02T04:12:26.873Z,101351.28
2023-01-02T04:15:33.887Z,101345.75
2023-01-02T04:18:46.855Z,101335.59
2023-01-02T04:21:53.470Z,101341.44
2023-01-02T04:25:06.542Z,101353.91
2023-01-02T04:28:30.383Z,101352.56
2023-01-02T04:31:44.735Z,101356.03
2023-01-02T04:34:48.855Z,101360.72
2023-01-02T04:37:51.360Z,101353.53
2023-01-02T04:40:55.035Z,101360.69
2023-01-02T04:43:59.653Z,101349.69
2023-01-02T04:47:02.090Z,101358.63
2023-01-02T04:50:06.429Z,101362.97
2023-01-02T04:53:10.804Z,101373.94
2023-01-02T04:56:13.242Z,101370.09
2023-01-02T04:59:15.783Z,101360.31
2023-01-02T05:02:18.311Z,101352.34
2023-01-02T05:05:20.775Z,101355.31
2023-01-02T05:08:23.251Z,101356.59
2023-01-02T05:11:25.788Z,101360.94
2023-01-02T05:14:30.492Z,101365.00
2023-01-02T05:17:39.977Z,101369.31
2023-01-02T05:20:42.645Z,101366.81
2023-01-02T05:23:50.729Z,101364.09
2023-01-02T05:26:54.733Z,101357.50
2023-01-02T05:29:57.239Z,101366.34
2023-01-02T05:32:59.719Z,101368.84
2023-01-02T05:36:05.685Z,101369.53
2023-01-02T05:39:09.287Z,101357.41
2023-01-02T05:42:11.810Z,101359.91
2023-01-02T05:45:14.297Z,101357.91
2023-01-02T05:48:16.826Z,101363.03
2023-01-02T05:51:20.650Z,101360.31
2023-01-02T05:54:23.115Z,101357.13
2023-01-02T05:57:25.570Z,101353.94
2023-01-02T06:00:28.950Z,101358.28
2023-01-02T06:03:31.694Z,101349.63
2023-01-02T06:06:40.408Z,101358.44
2023-01-02T06:09:43.085Z,101353.44
2023-01-02T06:12:45.595Z,101346.13
2023-01-02T06:15:48.095Z,101352.50
2023-01-02T06:18:51.501Z,101350.00
2023-01-02T06:21:54.085Z,101349.31
2023-01-02T06:24:56.548Z,101356.28
2023-01-02T06:27:59.060Z,101351.13
2023-01-02T06:31:10.330Z,101347.34
2023-01-02T06:34:12.973Z,101349.69
2023-01-02T06:37:15.504Z,101340.53
2023-01-02T06:40:18.085Z,101338.53
2023-01-02T06:43:21.070Z,101349.69
2023-01-02T06:46:24.678Z,101340.03
2023-01-02T06:49:27.256Z,101349.06
2023-01-02T06:52:29.962Z,101345.56
2023-01-02T06:55:32.432Z,101355.06
2023-01-02T06:58:36.269Z,101357.88
2023-01-02T07:01:39.013Z,101353.38
2023-01-02T07:04:41.736Z,101356.19
2023-01-02T07:07:44.247Z,101352.19
2023-01-02T07:10:52.529Z,101364.31
2023-01-02T07:13:55.499Z,101365.31
2023-01-02T07:16:57.960Z,101370.63
2023-01-02T07:20:02.566Z,101379.63
2023-01-02T07:23:05.203Z,101382.03
2023-01-02T07:26:08.511Z,101376.72
2023-01-02T07:29:11.111Z,101376.09
2023-01-02T07:32:13.728Z,101393.91
2023-01-02T07:35:16.348Z,101391.41
2023-01-02T07:38:18.884Z,101379.81
2023-01-02T07:41:24.418Z,101387.47
2023-01-02T07:44:26.958Z,101389.22
2023-01-02T07:47:29.420Z,101386.22
2023-01-02T07:50:35.789Z,101393.41
2023-01-02T07:53:39.144Z,101393.91
2023-01-02T07:56:41.741Z,101387.47
2023-01-02T07:59:47.044Z,101379.84
2023-01-02T08:02:55.076Z,101383.53
2023-01-02T08:06:05.286Z,101382.72
2023-01-02T08:09:08.082Z,101388.03
2023-01-02T08:12:10.538Z,101377.88
2023-01-02T08:15:13.079Z,101385.34
2023-01-02T08:18:15.534Z,101392.50
2023-01-02T08:21:18.338Z,101386.06
2023-01-02T08:24:20.777Z,101389.44
2023-01-02T08:27:23.261Z,101384.25
2023-01-02T08:30:26.389Z,101383.47
2023-01-02T08:33:28.978Z,101386.63
2023-01-02T08:36:31.503Z,101391.28
2023-01-02T08:39:34.042Z,101394.47
2023-01-02T08:42:37.400Z,101392.00
2023-01-02T08:45:39.891Z,101394.81
2023-01-02T08:48:42.339Z,101399.47
2023-01-02T08:51:45.302Z,101394.97
2023-01-02T08:54:47.777Z,101400.66
2023-01-02T08:57:50.308Z,101400.19
2023-01-02T09:00:53.121Z,101388.88
2023-01-02T09:03:56.095Z,101390.50
2023-01-02T09:06:58.641Z,101396.88
2023-01-02T09:10:01.344Z,101394.72
2023-01-02T09:13:04.039Z,101405.69
2023-01-02T09:16:07.439Z,101399.06
2023-01-02T09:19:10.053Z,101383.75
2023-01-02T09:22:12.596Z,101396.38
2023-01-02T09:25:20.336Z,101381.88
2023-01-02T09:28:27.748Z,101383.38
2023-01-02T09:31:30.355Z,101378.69
2023-01-02T09:34:32.840Z,101380.69
2023-01-02T09:37:35.320Z,101368.06
2023-01-02T09:40:52.349Z,101374.59
2023-01-02T09:44:06.503Z,101362.75
2023-01-02T09:47:16.031Z,101361.63
2023-01-02T09:50:30.291Z,101344.63
2023-01-02T09:53:34.025Z,101353.47
2023-01-02T09:56:42.826Z,101332.97
2023-01-02T10:00:06.549Z,101329.84
2023-01-02T10:03:45.273Z,101332.38
2023-01-02T10:06:55.487Z,101328.34
2023-01-02T10:10:08.222Z,101331.38
2023-01-02T10:16:59.472Z,101326.50
2023-01-02T10:20:08.131Z,101321.31
2023-01-02T10:23:21.731Z,101323.63
2023-01-02T10:26:31.273Z,101315.81
2023-01-02T10:29:40.145Z,101321.16
2023-01-02T10:32:47.936Z,101323.00
2023-01-02T10:36:36.512Z,101322.69
2023-01-02T10:39:42.371Z,101309.19
2023-01-02T10:42:45.452Z,101303.34
2023-01-02T10:45:47.973Z,101293.00
2023-01-02T10:48:52.391Z,101295.94
2023-01-02T10:52:38.007Z,101286.81
2023-01-02T10:55:44.295Z,101284.94
2023-01-02T10:58:49.875Z,101272.44
2023-01-02T11:01:58.134Z,101271.88
2023-01-02T11:05:02.844Z,101276.72
2023-01-02T11:08:16.334Z,101270.25
2023-01-02T11:11:18.921Z,101265.72
2023-01-02T11:14:31.212Z,101258.16
2023-01-02T11:17:41.751Z,101253.09
2023-01-02T11:20:51.159Z,101252.47
2023-01-02T11:24:00.116Z,101253.00
2023-01-02T11:27:03.077Z,101254.63
2023-01-02T11:30:08.089Z,101242.41
2023-01-02T11:33:15.271Z,101242.69
2023-01-02T11:36:19.886Z,101246.75
2023-01-02T11:39:23.967Z,101234.66
2023-01-02T11:42:59.327Z,101226.84
2023-01-02T11:46:06.866Z,101221.72
2023-01-02T11:49:16.416Z,101221.91
2023-01-02T11:52:28.111Z,101216.56
2023-01-02T11:55:45.544Z,101215.53
2023-01-02T11:58:47.945Z,101213.53
2023-01-02T12:02:15.519Z,101206.88
2023-01-02T12:05:23.851Z,101205.31
2023-01-02T12:08:27.238Z,101209.81
2023-01-02T12:11:35.513Z,101206.78
2023-01-02T12:14:56.665Z,101210.66
2023-01-02T12:18:26.068Z,101214.03
2023-01-02T12:21:37.316Z,101200.63
2023-01-02T12:24:57.750Z,101196.56
2023-01-02T12:28:28.912Z,101195.91
2023-01-02T12:31:46.505Z,101186.78
2023-01-02T12:35:30.835Z,101189.31
2023-01-02T12:39:09.987Z,101195.84
2023-01-02T12:42:40.694Z,101189.22
2023-01-02T12:46:13.998Z,101180.56
2023-01-02T12:49:34.654Z,101190.56
2023-01-02T12:52:52.010Z,101186.56
2023-01-02T12:56:31.783Z,101181.47
2023-01-02T12:59:37.062Z,101172.94
2023-01-02T13:03:04.190Z,101174.09
2023-01-02T13:06:43.932Z,101176.41
2023-01-02T13:09:50.918Z,101162.13
2023-01-02T13:12:56.860Z,101166.00
2023-01-02T13:16:10.343Z,101174.63
2023-01-02T13:19:56.893Z,101169.50
2023-01-02T13:23:27.652Z,101169.69
2023-01-02T13:26:31.744Z,101163.19
2023-01-02T13:29:45.428Z,101165.22
2023-01-02T13:32:48.202Z,101164.34
2023-01-02T13:35:51.528Z,101167.47
2023-01-02T13:39:01.917Z,101156.81
2023-01-02T13:42:24.159Z,101169.00
2023-01-02T13:45:28.840Z,101166.84
2023-01-02T13:48:45.565Z,101178.88
2023-01-02T13:51:48.990Z,101170.63
2023-01-02T13:55:09.834Z,101174.28
2023-01-02T13:58:21.147Z,101178.72
2023-01-02T14:01:23.836Z,101177.16
2023-01-02T14:04:27.796Z,101174.50
2023-01-02T14:07:30.274Z,101188.03
2023-01-02T14:10:38.523Z,101185.53
2023-01-02T14:13:45.570Z,101187.50
2023-01-02T14:16:47.976Z,101174.69
2023-01-02T14:20:19.764Z,101190.69
2023-01-02T14:23:33.666Z,101188.38
2023-01-02T14:26:38.238Z,101192.06
2023-01-02T14:30:03.009Z,101184.91
2023-01-02T14:33:09.174Z,101186.13
2023-01-02T14:36:12.469Z,101189.94
2023-01-02T14:39:35.557Z,101185.97
2023-01-02T14:42:57.817Z,101182.16
2023-01-02T14:46:35.453Z,101187.66
2023-01-02T14:49:38.904Z,101177.84
2023-01-02T14:52:45.640Z,101168.84
2023-01-02T14:55:52.917Z,101168.53
2023-01-02T14:58:56.735Z,101171.03
2023-01-02T15:02:06.815Z,101174.69
2023-01-02T15:05:18.467Z,101175.69
2023-01-02T15:08:33.036Z,101169.03
2023-01-02T15:11:53.936Z,101172.03
2023-01-02T15:14:56.992Z,101170.03
2023-01-02T15:18:35.281Z,101170.69
2023-01-02T15:21:39.871Z,101183.66
2023-01-02T15:24:48.895Z,101181.50
2023-01-02T15:27:54.612Z,101176.69
2023-01-02T15:31:12.504Z,101180.31
2023-01-02T15:34:24.719Z,101175.66
2023-01-02T15:37:27.245Z,101179.81
2023-01-02T15:40:33.779Z,101184.66
2023-01-02T15:43:57.622Z,101166.53
2023-01-02T15:47:00.876Z,101164.81
2023-01-02T15:50:10.862Z,101173.66
2023-01-02T15:53:26.812Z,101189.28
2023-01-02T15:56:37.341Z,101189.44
2023-01-02T15:59:40.028Z,101189.28
2023-01-02T16:02:44.628Z,101194.78
2023-01-02T16:05:57.652Z,101195.44
2023-01-02T16:09:03.718Z,101188.28
2023-01-02T16:12:06.723Z,101199.78
2023-01-02T16:15:09.619Z,101198.63
2023-01-02T16:18:13.170Z,101204.25
2023-01-02T16:21:17.207Z,101204.69
2023-01-02T16:24:23.522Z,101203.88
2023-01-02T16:27:30.692Z,101205.88
2023-01-02T16:30:40.875Z,101205.53
2023-01-02T16:33:45.848Z,101210.38
2023-01-02T16:36:48.454Z,101204.88
2023-01-02T16:39:51.014Z,101205.69
2023-01-02T16:43:02.715Z,101203.22
2023-01-02T16:46:11.268Z,101203.56
2023-01-02T16:49:16.989Z,101202.72
2023-01-02T16:52:19.579Z,101199.88
2023-01-02T16:55:23.878Z,101207.56
2023-01-02T16:58:27.148Z,101219.22
2023-01-02T17:01:29.823Z,101204.72
2023-01-02T17:04:32.446Z,101210.06
2023-01-02T17:07:34.902Z,101216.16
2023-01-02T17:10:42.114Z,101214.50
2023-01-02T17:13:44.983Z,101210.69
2023-01-02T17:16:47.406Z,101207.22
2023-01-02T17:19:49.980Z,101208.56
2023-01-02T17:22:52.467Z,101205.56
2023-01-02T17:25:54.988Z,101215.84
2023-01-02T17:28:57.536Z,101210.22
2023-01-02T17:32:00.152Z,101212.34
2023-01-02T17:35:03.250Z,101218.19
2023-01-02T17:38:05.920Z,101215.19
2023-01-02T17:41:08.996Z,101219.22
2023-01-02T17:44:11.422Z,101218.22
2023-01-02T17:47:57.239Z,101217.41
2023-01-02T17:50:36.818Z,101216.38
2023-01-02T17:53:42.487Z,101203.53
2023-01-02T17:56:44.986Z,101210.69
2023-01-02T17:59:47.544Z,101213.88
2023-01-02T18:02:52.160Z,101214.19
2023-01-02T18:05:54.814Z,101214.53
2023-01-02T18:08:57.350Z,101215.69
2023-01-02T18:11:59.847Z,101213.19
2023-01-02T18:15:10.639Z,101209.72
2023-01-02T18:18:14.676Z,101209.72
2023-01-02T18:21:22.047Z,101214.22
2023-01-02T18:24:32.199Z,101198.91
2023-01-02T18:27:35.566Z,101217.22
2023-01-02T18:30:38.247Z,101206.38
2023-01-02T18:33:42.880Z,101202.06
2023-01-02T18:36:46.169Z,101201.41
2023-01-02T18:39:50.129Z,101214.75
2023-01-02T18:42:55.569Z,101197.06
2023-01-02T18:46:00.524Z,101202.06
2023-01-02T18:49:25.134Z,101202.56
2023-01-02T18:52:30.555Z,101204.06
2023-01-02T18:55:40.149Z,101198.56
2023-01-02T18:58:47.243Z,101201.22
2023-01-02T19:01:51.829Z,101196.91
2023-01-02T19:04:56.059Z,101199.72
2023-01-02T19:08:13.997Z,101199.09
2023-01-02T19:11:37.830Z,101205.41
2023-01-02T19:14:42.954Z,101205.59
2023-01-02T19:17:45.488Z,101210.03
2023-01-02T19:21:09.762Z,101209.72
2023-01-02T19:24:22.164Z,101198.69
2023-01-02T19:27:26.054Z,101212.38
2023-01-02T19:30:35.782Z,101206.75
2023-01-02T19:33:41.901Z,101210.69
2023-01-02T19:36:45.329Z,101202.75
2023-01-02T19:39:56.306Z,101202.56
2023-01-02T19:43:00.001Z,101216.34
2023-01-02T19:46:02.722Z,101202.56
2023-01-02T19:49:05.203Z,101206.53
2023-01-02T19:52:10.179Z,101204.72
2023-01-02T19:55:14.354Z,101206.22
2023-01-02T19:58:17.510Z,101201.75
2023-01-02T20:01:22.309Z,101208.75
2023-01-02T20:04:25.083Z,101214.56
2023-01-02T20:07:27.586Z,101216.41
2023-01-02T20:10:30.071Z,101215.06
2023-01-02T20:13:32.625Z,101219.56
2023-01-02T20:16:36.210Z,101229.03
2023-01-02T20:19:39.213Z,101218.56
2023-01-02T20:22:43.564Z,101222.56
2023-01-02T20:25:47.129Z,101218.06
2023-01-02T20:28:49.591Z,101216.59
2023-01-02T20:31:52.599Z,101217.56
2023-01-02T20:34:55.200Z,101206.91
2023-01-02T20:37:57.958Z,101216.41
2023-01-02T20:41:00.701Z,101217.41
2023-01-02T20:44:03.448Z,101230.03
2023-01-02T20:47:06.198Z,101224.25
2023-01-02T20:50:09.348Z,101215.94
2023-01-02T20:53:12.082Z,101213.63
2023-01-02T20:56:15.079Z,101217.25
2023-01-02T20:59:18.076Z,101212.59
2023-01-02T21:02:21.019Z,101205.78
2023-01-02T21:05:24.300Z,101210.13
2023-01-02T21:08:28.675Z,101215.13
2023-01-02T21:11:31.666Z,101217.28
2023-01-02T21:14:37.759Z,101217.28
2023-01-02T21:17:40.885Z,101216.09
2023-01-02T21:20:47.517Z,101220.59
2023-01-02T21:23:50.277Z,101216.25
2023-01-02T21:26:53.025Z,101222.78
2023-01-02T21:29:55.830Z,101223.28
2023-01-02T21:32:58.524Z,101225.63
2023-01-02T21:36:02.945Z,101225.94
2023-01-02T21:39:05.561Z,101237.41
2023-01-02T21:42:16.620Z,101239.25
2023-01-02T21:45:19.109Z,101239.91
2023-01-02T21:48:21.739Z,101236.91
2023-01-02T21:51:27.639Z,101235.94
2023-01-02T21:54:33.526Z,101234.75
2023-01-02T21:58:11.859Z,101235.25
2023-01-02T22:00:58.837Z,101243.56
2023-01-02T22:04:01.513Z,101245.06
2023-01-02T22:07:31.065Z,101239.25
2023-01-02T22:10:37.629Z,101238.59
2023-01-02T22:13:40.165Z,101239.41
2023-01-02T22:16:43.977Z,101239.06
2023-01-02T22:19:46.497Z,101227.59
2023-01-02T22:22:49.676Z,101230.56
2023-01-02T22:25:52.161Z,101239.06
2023-01-02T22:28:58.141Z,101244.88
2023-01-02T22:32:03.717Z,101239.06
2023-01-02T22:35:07.883Z,101226.75
2023-01-02T22:38:10.384Z,101231.25
2023-01-02T22:41:13.081Z,101231.09
2023-01-02T22:44:23.821Z,101232.75
2023-01-02T22:47:30.027Z,101230.94
2023-01-02T22:50:41.564Z,101237.25
2023-01-02T22:53:44.055Z,101222.94
2023-01-02T22:56:46.835Z,101225.59
2023-01-02T22:59:49.403Z,101235.91
2023-01-02T23:02:52.237Z,101228.78
2023-01-02T23:05:54.775Z,101227.41
2023-01-02T23:08:57.284Z,101227.25
2023-01-02T23:11:59.942Z,101228.91
2023-01-02T23:15:02.662Z,101217.94
2023-01-02T23:18:24.065Z,101226.13
2023-01-02T23:21:27.946Z,101225.09
2023-01-02T23:24:36.330Z,101236.44
2023-01-02T23:27:38.834Z,101238.94
2023-01-02T23:30:41.455Z,101242.56
2023-01-02T23:33:43.970Z,101237.88
2023-01-02T23:36:46.903Z,101235.38
2023-01-02T23:39:49.469Z,101223.28
2023-01-02T23:42:52.088Z,101230.25
2023-01-02T23:45:54.685Z,101238.56
2023-01-02T23:48:57.311Z,101226.59
2023-01-02T23:52:00.143Z,101230.22
2023-01-02T23:55:02.791Z,101234.56
2023-01-02T23:58:05.441Z,101227.41
